Airfield :
LOGIN :

Register | Disclaimer

   EN    FR    IT 

 










Legend :    VFR   Marginal VFR   IFR   Intensive IFR   Very Intensive IFR
Visi :
Ceiling :
>= 8 km
>= 3000ft
5 to 8 km
1000 to 3000 ft
1500m to 5 km
500 to 1000 ft
800 to 1500m
200 to 500 ft
< 800m
< 200 ft
Symbols :   Thunderstorms  Fog  Heavy snow  Heavy precipitations  Wind > 20 kt
SIGMETs :     Misc.  Thunderstorms  Icing  Turbulence  Mountain Waves  Volcanic Ashes






- Airport Elevation : 230 ft
- IATA code : TBJ


DTKA - Tabarka 7 Novembre

CURRENT METAR :
  • 031800Z 33003KT 9999 SCT016TCU SCT030 13/13 Q1012 NOSIG

EXPIRED METARs :
  • 031700Z 35006KT 9999 SCT016TCU SCT030 13/13 Q1012 NOSIG
  • 031600Z 35007KT 330V030 9999 BKN020TCU SCT030 14/13 Q1011 NOSIG

TAF TAF DTKA
Valid from the 03 at 16:00 until the 04 at 01:00 UTC


031500Z 0316/0401 35008KT 9999 SCT020TCU SCT030
PROB30
TEMPO 0316/0319 4000 -SHRA FEW026CB BKN030



MET'MAP, your aeronautical weather chart ! - Copyright ORBIFLY December 2007 - Disclaimer

ORBIFLY MET'MAP TEAM :

Programming & Development : Alexandra Zaïnal
Concept & original design : Baudouin d'Aumeries
Assistance for programming : Marc-Olivier Méhu
Technical & hardware support : Manuel Goepfert

Contact : metmap@orbifly.com




SOURCES & CREDITS :

   NOAA